sensor_id;sensor_type;location;lat;lon;timestamp;pressure;altitude;pressure_sealevel;temperature;humidity
49515;BME280;35415;47.870;16.058;2023-03-12T00:01:13;96848.72;;;2.63;46.67
49515;BME280;35415;47.870;16.058;2023-03-12T00:03:41;96865.41;;;2.70;46.93
49515;BME280;35415;47.870;16.058;2023-03-12T00:06:10;96852.78;;;2.66;46.96
49515;BME280;35415;47.870;16.058;2023-03-12T00:08:38;96856.81;;;2.68;46.95
49515;BME280;35415;47.870;16.058;2023-03-12T00:11:07;96846.66;;;2.54;47.20
49515;BME280;35415;47.870;16.058;2023-03-12T00:13:36;96825.59;;;2.40;47.08
49515;BME280;35415;47.870;16.058;2023-03-12T00:16:05;96868.13;;;2.64;47.00
49515;BME280;35415;47.870;16.058;2023-03-12T00:18:33;96867.09;;;2.65;47.19
49515;BME280;35415;47.870;16.058;2023-03-12T00:21:00;96862.94;;;2.57;47.05
49515;BME280;35415;47.870;16.058;2023-03-12T00:23:30;96820.06;;;2.12;46.74
49515;BME280;35415;47.870;16.058;2023-03-12T00:26:01;96817.63;;;2.10;47.26
49515;BME280;35415;47.870;16.058;2023-03-12T00:28:29;96874.59;;;2.56;47.38
49515;BME280;35415;47.870;16.058;2023-03-12T00:30:57;96876.66;;;2.54;47.80
49515;BME280;35415;47.870;16.058;2023-03-12T00:33:27;96870.13;;;2.38;47.85
49515;BME280;35415;47.870;16.058;2023-03-12T00:35:59;96886.25;;;2.55;48.76
49515;BME280;35415;47.870;16.058;2023-03-12T00:38:30;96881.75;;;2.56;47.75
49515;BME280;35415;47.870;16.058;2023-03-12T00:40:58;96890.63;;;2.61;47.75
49515;BME280;35415;47.870;16.058;2023-03-12T00:43:26;96896.41;;;2.58;47.92
49515;BME280;35415;47.870;16.058;2023-03-12T00:45:53;96893.41;;;2.55;48.00
49515;BME280;35415;47.870;16.058;2023-03-12T00:48:19;96892.94;;;2.58;47.77
49515;BME280;35415;47.870;16.058;2023-03-12T00:50:46;96894.78;;;2.57;48.12
49515;BME280;35415;47.870;16.058;2023-03-12T00:53:15;96896.63;;;2.57;47.73
49515;BME280;35415;47.870;16.058;2023-03-12T00:55:43;96881.69;;;2.44;48.53
49515;BME280;35415;47.870;16.058;2023-03-12T00:58:11;96867.03;;;2.41;48.71
49515;BME280;35415;47.870;16.058;2023-03-12T01:00:38;96911.53;;;2.58;48.37
49515;BME280;35415;47.870;16.058;2023-03-12T01:03:05;96832.66;;;2.17;49.19
49515;BME280;35415;47.870;16.058;2023-03-12T01:05:33;96886.69;;;2.52;48.67
49515;BME280;35415;47.870;16.058;2023-03-12T01:08:06;96833.63;;;2.22;48.71
49515;BME280;35415;47.870;16.058;2023-03-12T01:10:34;96802.69;;;1.98;48.53
49515;BME280;35415;47.870;16.058;2023-03-12T01:13:03;96835.91;;;2.19;49.16
49515;BME280;35415;47.870;16.058;2023-03-12T01:15:30;96863.44;;;2.36;48.47
49515;BME280;35415;47.870;16.058;2023-03-12T01:17:58;96886.53;;;2.47;49.10
49515;BME280;35415;47.870;16.058;2023-03-12T01:20:25;96841.78;;;2.21;49.29
49515;BME280;35415;47.870;16.058;2023-03-12T01:22:52;96888.75;;;2.50;49.30
49515;BME280;35415;47.870;16.058;2023-03-12T01:25:20;96899.41;;;2.62;49.54
49515;BME280;35415;47.870;16.058;2023-03-12T01:27:47;96870.63;;;2.47;49.23
49515;BME280;35415;47.870;16.058;2023-03-12T01:30:16;96862.69;;;2.29;49.39
49515;BME280;35415;47.870;16.058;2023-03-12T01:32:45;96886.81;;;2.57;49.55
49515;BME280;35415;47.870;16.058;2023-03-12T01:35:13;96857.09;;;2.37;49.06
49515;BME280;35415;47.870;16.058;2023-03-12T01:37:42;96857.53;;;2.34;48.88
49515;BME280;35415;47.870;16.058;2023-03-12T01:40:14;96901.78;;;2.52;49.04
49515;BME280;35415;47.870;16.058;2023-03-12T01:42:42;96896.34;;;2.47;49.38
49515;BME280;35415;47.870;16.058;2023-03-12T01:48:11;96874.94;;;2.30;49.98
49515;BME280;35415;47.870;16.058;2023-03-12T01:50:39;96908.13;;;2.51;49.56
49515;BME280;35415;47.870;16.058;2023-03-12T01:53:06;96890.72;;;2.25;49.92
49515;BME280;35415;47.870;16.058;2023-03-12T01:55:33;96917.81;;;2.45;49.95
49515;BME280;35415;47.870;16.058;2023-03-12T01:58:01;96851.47;;;1.97;50.15
49515;BME280;35415;47.870;16.058;2023-03-12T02:00:28;96881.97;;;2.24;51.22
49515;BME280;35415;47.870;16.058;2023-03-12T02:02:57;96889.47;;;2.27;50.20
49515;BME280;35415;47.870;16.058;2023-03-12T02:05:32;96894.84;;;2.51;50.07
49515;BME280;35415;47.870;16.058;2023-03-12T02:08:04;96910.25;;;2.60;50.45
49515;BME280;35415;47.870;16.058;2023-03-12T02:10:31;96907.59;;;2.60;50.43
49515;BME280;35415;47.870;16.058;2023-03-12T02:12:58;96899.28;;;2.57;50.00
49515;BME280;35415;47.870;16.058;2023-03-12T02:15:25;96910.50;;;2.59;49.93
49515;BME280;35415;47.870;16.058;2023-03-12T02:17:53;96917.66;;;2.58;50.40
49515;BME280;35415;47.870;16.058;2023-03-12T02:20:24;96912.34;;;2.58;50.43
49515;BME280;35415;47.870;16.058;2023-03-12T02:22:56;96912.22;;;2.65;49.49
49515;BME280;35415;47.870;16.058;2023-03-12T02:25:33;96907.59;;;2.60;49.58
49515;BME280;35415;47.870;16.058;2023-03-12T02:28:05;96912.56;;;2.57;49.73
49515;BME280;35415;47.870;16.058;2023-03-12T02:30:34;96920.19;;;2.53;50.67
49515;BME280;35415;47.870;16.058;2023-03-12T02:33:05;96848.22;;;2.13;50.23
49515;BME280;35415;47.870;16.058;2023-03-12T02:35:34;96920.63;;;2.32;50.58
49515;BME280;35415;47.870;16.058;2023-03-12T02:38:03;96868.03;;;2.10;50.98
49515;BME280;35415;47.870;16.058;2023-03-12T02:40:44;96933.75;;;2.45;51.09
49515;BME280;35415;47.870;16.058;2023-03-12T02:43:19;96913.13;;;2.29;51.49
49515;BME280;35415;47.870;16.058;2023-03-12T02:45:48;96824.47;;;1.70;51.18
49515;BME280;35415;47.870;16.058;2023-03-12T02:48:18;96931.56;;;2.24;51.60
49515;BME280;35415;47.870;16.058;2023-03-12T02:50:46;96938.19;;;2.33;51.59
49515;BME280;35415;47.870;16.058;2023-03-12T02:53:13;96842.59;;;1.73;51.12
49515;BME280;35415;47.870;16.058;2023-03-12T02:55:42;96901.38;;;2.06;51.89
49515;BME280;35415;47.870;16.058;2023-03-12T02:58:10;96938.03;;;2.28;51.81
49515;BME280;35415;47.870;16.058;2023-03-12T03:00:37;96905.28;;;2.04;51.73
49515;BME280;35415;47.870;16.058;2023-03-12T03:03:07;96938.06;;;2.09;52.20
49515;BME280;35415;47.870;16.058;2023-03-12T03:05:35;96883.97;;;1.92;52.08
49515;BME280;35415;47.870;16.058;2023-03-12T03:08:03;96941.38;;;2.23;52.51
49515;BME280;35415;47.870;16.058;2023-03-12T03:10:32;96963.63;;;2.22;52.05
49515;BME280;35415;47.870;16.058;2023-03-12T03:13:08;96853.91;;;1.62;51.87
49515;BME280;35415;47.870;16.058;2023-03-12T03:15:46;96868.22;;;1.61;52.18
49515;BME280;35415;47.870;16.058;2023-03-12T03:18:13;96960.75;;;2.05;51.97
49515;BME280;35415;47.870;16.058;2023-03-12T03:20:40;96899.09;;;1.73;52.63
49515;BME280;35415;47.870;16.058;2023-03-12T03:23:09;96929.16;;;1.86;52.87
49515;BME280;35415;47.870;16.058;2023-03-12T03:25:36;96969.75;;;2.04;53.02
49515;BME280;35415;47.870;16.058;2023-03-12T03:28:06;96917.09;;;1.65;52.89
49515;BME280;35415;47.870;16.058;2023-03-12T03:30:36;96950.19;;;1.80;52.50
49515;BME280;35415;47.870;16.058;2023-03-12T03:33:03;96950.56;;;1.84;52.55
49515;BME280;35415;47.870;16.058;2023-03-12T03:35:32;96931.81;;;1.61;53.63
49515;BME280;35415;47.870;16.058;2023-03-12T03:38:00;96957.84;;;1.70;53.16
49515;BME280;35415;47.870;16.058;2023-03-12T03:40:30;96939.56;;;1.62;53.58
49515;BME280;35415;47.870;16.058;2023-03-12T03:42:58;96970.22;;;1.76;53.01
49515;BME280;35415;47.870;16.058;2023-03-12T03:45:27;96934.81;;;1.46;53.23
49515;BME280;35415;47.870;16.058;2023-03-12T03:47:54;96940.78;;;1.41;53.87
49515;BME280;35415;47.870;16.058;2023-03-12T03:50:22;96978.06;;;1.65;53.31
49515;BME280;35415;47.870;16.058;2023-03-12T03:52:49;96870.72;;;0.87;53.82
49515;BME280;35415;47.870;16.058;2023-03-12T03:55:17;96896.09;;;1.02;54.14
49515;BME280;35415;47.870;16.058;2023-03-12T03:57:45;96932.44;;;1.13;54.16
49515;BME280;35415;47.870;16.058;2023-03-12T04:00:13;96961.19;;;1.34;54.56
49515;BME280;35415;47.870;16.058;2023-03-12T04:02:44;96998.00;;;1.49;54.84
49515;BME280;35415;47.870;16.058;2023-03-12T04:05:11;97001.28;;;1.44;54.72
49515;BME280;35415;47.870;16.058;2023-03-12T04:07:40;96939.06;;;1.04;54.62
49515;BME280;35415;47.870;16.058;2023-03-12T04:10:10;96955.03;;;0.90;55.66
49515;BME280;35415;47.870;16.058;2023-03-12T04:12:37;97029.72;;;1.31;55.22
49515;BME280;35415;47.870;16.058;2023-03-12T04:15:07;96947.72;;;0.86;55.19
49515;BME280;35415;47.870;16.058;2023-03-12T04:17:52;96973.63;;;0.77;55.13
49515;BME280;35415;47.870;16.058;2023-03-12T04:20:21;96979.66;;;0.91;55.26
49515;BME280;35415;47.870;16.058;2023-03-12T04:22:48;97027.59;;;1.14;55.82
49515;BME280;35415;47.870;16.058;2023-03-12T04:25:16;97005.94;;;0.93;55.33
49515;BME280;35415;47.870;16.058;2023-03-12T04:27:43;97003.72;;;0.89;55.90
49515;BME280;35415;47.870;16.058;2023-03-12T04:30:24;97024.81;;;1.03;55.54
49515;BME280;35415;47.870;16.058;2023-03-12T04:32:53;97034.19;;;0.99;57.44
49515;BME280;35415;47.870;16.058;2023-03-12T04:35:22;96934.81;;;0.26;56.34
49515;BME280;35415;47.870;16.058;2023-03-12T04:37:50;96991.28;;;0.52;56.48
49515;BME280;35415;47.870;16.058;2023-03-12T04:40:18;96960.19;;;0.41;57.02
49515;BME280;35415;47.870;16.058;2023-03-12T04:42:45;97042.41;;;0.84;56.59
49515;BME280;35415;47.870;16.058;2023-03-12T04:45:13;97040.63;;;0.78;56.72
49515;BME280;35415;47.870;16.058;2023-03-12T04:47:41;97043.69;;;0.75;56.76
49515;BME280;35415;47.870;16.058;2023-03-12T04:50:10;97055.53;;;0.72;56.62
49515;BME280;35415;47.870;16.058;2023-03-12T04:52:39;97036.44;;;0.57;57.01
49515;BME280;35415;47.870;16.058;2023-03-12T04:55:09;97054.38;;;0.55;56.90
49515;BME280;35415;47.870;16.058;2023-03-12T04:57:39;97076.75;;;0.59;56.24
49515;BME280;35415;47.870;16.058;2023-03-12T05:00:09;97062.91;;;0.50;57.96
49515;BME280;35415;47.870;16.058;2023-03-12T05:02:37;97069.03;;;0.51;58.16
49515;BME280;35415;47.870;16.058;2023-03-12T05:05:06;97070.88;;;0.44;58.99
49515;BME280;35415;47.870;16.058;2023-03-12T05:07:34;97010.75;;;-0.01;58.65
49515;BME280;35415;47.870;16.058;2023-03-12T05:10:03;97087.59;;;0.38;57.96
49515;BME280;35415;47.870;16.058;2023-03-12T05:12:35;97078.44;;;0.34;58.16
49515;BME280;35415;47.870;16.058;2023-03-12T05:15:03;97008.56;;;-0.10;57.83
49515;BME280;35415;47.870;16.058;2023-03-12T05:17:33;97022.41;;;-0.15;57.63
49515;BME280;35415;47.870;16.058;2023-03-12T05:20:01;97044.34;;;-0.08;57.45
49515;BME280;35415;47.870;16.058;2023-03-12T05:22:36;97058.97;;;-0.05;58.67
49515;BME280;35415;47.870;16.058;2023-03-12T05:25:10;97094.13;;;0.22;58.00
49515;BME280;35415;47.870;16.058;2023-03-12T05:27:39;97094.75;;;0.17;58.87
49515;BME280;35415;47.870;16.058;2023-03-12T05:30:17;97040.50;;;-0.25;58.33
49515;BME280;35415;47.870;16.058;2023-03-12T05:32:44;97094.53;;;0.12;58.86
49515;BME280;35415;47.870;16.058;2023-03-12T05:35:11;97103.72;;;0.10;58.62
49515;BME280;35415;47.870;16.058;2023-03-12T05:37:39;97025.84;;;-0.54;58.36
49515;BME280;35415;47.870;16.058;2023-03-12T05:40:13;97043.94;;;-0.38;58.33
49515;BME280;35415;47.870;16.058;2023-03-12T05:42:40;97089.69;;;-0.17;59.16
49515;BME280;35415;47.870;16.058;2023-03-12T05:45:08;97060.19;;;-0.54;60.06
49515;BME280;35415;47.870;16.058;2023-03-12T05:47:36;97074.66;;;-0.43;59.43
49515;BME280;35415;47.870;16.058;2023-03-12T05:50:08;97135.44;;;-0.10;59.77
49515;BME280;35415;47.870;16.058;2023-03-12T05:52:36;97135.88;;;-0.13;59.72
49515;BME280;35415;47.870;16.058;2023-03-12T05:55:05;97064.47;;;-0.59;59.17
49515;BME280;35415;47.870;16.058;2023-03-12T05:57:34;97041.25;;;-0.91;59.33
49515;BME280;35415;47.870;16.058;2023-03-12T06:00:04;97141.75;;;-0.24;59.43
49515;BME280;35415;47.870;16.058;2023-03-12T06:02:32;97108.78;;;-0.48;59.62
49515;BME280;35415;47.870;16.058;2023-03-12T06:04:59;97103.88;;;-0.51;60.55
49515;BME280;35415;47.870;16.058;2023-03-12T06:07:27;97163.28;;;-0.27;60.75
49515;BME280;35415;47.870;16.058;2023-03-12T06:09:55;97074.59;;;-0.76;60.91
49515;BME280;35415;47.870;16.058;2023-03-12T06:12:24;97047.75;;;-0.86;61.24
49515;BME280;35415;47.870;16.058;2023-03-12T06:14:53;97140.94;;;-0.25;60.89
49515;BME280;35415;47.870;16.058;2023-03-12T06:17:23;97053.47;;;-0.76;61.73
49515;BME280;35415;47.870;16.058;2023-03-12T06:19:50;97125.06;;;-0.32;62.00
49515;BME280;35415;47.870;16.058;2023-03-12T06:22:19;97148.44;;;-0.22;62.39
49515;BME280;35415;47.870;16.058;2023-03-12T06:24:46;97142.16;;;-0.21;62.89
49515;BME280;35415;47.870;16.058;2023-03-12T06:27:14;97146.22;;;-0.18;62.67
49515;BME280;35415;47.870;16.058;2023-03-12T06:29:43;97125.06;;;-0.32;62.11
49515;BME280;35415;47.870;16.058;2023-03-12T06:32:13;97150.91;;;-0.14;62.59
49515;BME280;35415;47.870;16.058;2023-03-12T06:34:43;97158.63;;;-0.12;62.46
49515;BME280;35415;47.870;16.058;2023-03-12T06:37:10;97134.22;;;-0.27;62.25
49515;BME280;35415;47.870;16.058;2023-03-12T06:39:38;97147.03;;;-0.11;62.07
49515;BME280;35415;47.870;16.058;2023-03-12T06:42:05;97160.88;;;-0.03;62.35
49515;BME280;35415;47.870;16.058;2023-03-12T06:44:32;97164.75;;;0.02;61.94
49515;BME280;35415;47.870;16.058;2023-03-12T06:46:59;97094.78;;;-0.42;62.60
49515;BME280;35415;47.870;16.058;2023-03-12T06:49:27;97173.50;;;0.09;62.02
49515;BME280;35415;47.870;16.058;2023-03-12T06:51:57;97172.25;;;0.11;62.99
49515;BME280;35415;47.870;16.058;2023-03-12T06:54:24;97172.47;;;0.16;62.90
49515;BME280;35415;47.870;16.058;2023-03-12T06:56:51;97143.19;;;0.05;64.12
49515;BME280;35415;47.870;16.058;2023-03-12T06:59:19;97148.47;;;0.11;64.10
49515;BME280;35415;47.870;16.058;2023-03-12T07:01:47;97172.25;;;0.31;63.76
49515;BME280;35415;47.870;16.058;2023-03-12T07:04:14;97149.47;;;0.23;64.28
49515;BME280;35415;47.870;16.058;2023-03-12T07:06:43;97175.69;;;0.45;64.39
49515;BME280;35415;47.870;16.058;2023-03-12T07:09:14;97175.50;;;0.53;65.14
49515;BME280;35415;47.870;16.058;2023-03-12T07:11:41;97154.31;;;0.46;64.99
49515;BME280;35415;47.870;16.058;2023-03-12T07:14:08;97160.41;;;0.60;64.02
49515;BME280;35415;47.870;16.058;2023-03-12T07:16:35;97142.94;;;0.52;64.24
49515;BME280;35415;47.870;16.058;2023-03-12T07:19:02;97165.22;;;0.83;63.95
49515;BME280;35415;47.870;16.058;2023-03-12T07:21:30;97169.25;;;0.99;63.26
49515;BME280;35415;47.870;16.058;2023-03-12T07:23:58;97169.03;;;1.07;63.47
49515;BME280;35415;47.870;16.058;2023-03-12T07:26:31;97173.50;;;1.19;63.03
49515;BME280;35415;47.870;16.058;2023-03-12T07:28:58;97177.28;;;1.30;62.57
49515;BME280;35415;47.870;16.058;2023-03-12T07:31:26;97173.41;;;1.39;61.85
49515;BME280;35415;47.870;16.058;2023-03-12T07:33:53;97178.22;;;1.49;61.81
49515;BME280;35415;47.870;16.058;2023-03-12T07:36:20;97160.75;;;1.41;62.04
49515;BME280;35415;47.870;16.058;2023-03-12T07:38:47;97166.53;;;1.63;61.07
49515;BME280;35415;47.870;16.058;2023-03-12T07:41:16;97174.41;;;1.76;61.77
49515;BME280;35415;47.870;16.058;2023-03-12T07:43:43;97175.56;;;1.87;63.05
49515;BME280;35415;47.870;16.058;2023-03-12T07:46:10;97176.91;;;1.96;60.80
49515;BME280;35415;47.870;16.058;2023-03-12T07:48:37;97172.78;;;2.07;60.90
49515;BME280;35415;47.870;16.058;2023-03-12T07:51:04;97176.34;;;2.19;60.25
49515;BME280;35415;47.870;16.058;2023-03-12T07:53:32;97171.00;;;2.26;60.17
49515;BME280;35415;47.870;16.058;2023-03-12T07:55:59;97147.81;;;2.15;60.22
49515;BME280;35415;47.870;16.058;2023-03-12T07:58:28;97178.13;;;2.50;58.92
49515;BME280;35415;47.870;16.058;2023-03-12T08:00:56;97179.47;;;2.59;57.81
49515;BME280;35415;47.870;16.058;2023-03-12T08:03:24;97153.63;;;2.48;56.57
49515;BME280;35415;47.870;16.058;2023-03-12T08:05:55;97188.06;;;2.80;56.12
49515;BME280;35415;47.870;16.058;2023-03-12T08:08:23;97184.31;;;2.87;56.30
49515;BME280;35415;47.870;16.058;2023-03-12T08:10:50;97175.09;;;2.90;54.22
49515;BME280;35415;47.870;16.058;2023-03-12T08:13:18;97190.66;;;3.05;54.16
49515;BME280;35415;47.870;16.058;2023-03-12T08:15:48;97201.00;;;3.13;54.06
49515;BME280;35415;47.870;16.058;2023-03-12T08:18:15;97184.16;;;3.19;52.82
49515;BME280;35415;47.870;16.058;2023-03-12T08:20:42;97188.38;;;3.26;52.64
49515;BME280;35415;47.870;16.058;2023-03-12T08:23:10;97177.06;;;3.31;51.52
49515;BME280;35415;47.870;16.058;2023-03-12T08:25:38;97181.03;;;3.40;51.88
49515;BME280;35415;47.870;16.058;2023-03-12T08:28:05;97181.53;;;3.49;51.36
49515;BME280;35415;47.870;16.058;2023-03-12T08:30:33;97171.47;;;3.51;49.80
49515;BME280;35415;47.870;16.058;2023-03-12T08:33:03;97190.06;;;3.69;49.40
49515;BME280;35415;47.870;16.058;2023-03-12T08:35:31;97189.53;;;3.79;49.06
49515;BME280;35415;47.870;16.058;2023-03-12T08:37:58;97097.66;;;3.35;48.71
49515;BME280;35415;47.870;16.058;2023-03-12T08:40:26;97178.13;;;4.02;48.33
49515;BME280;35415;47.870;16.058;2023-03-12T08:42:53;97178.63;;;4.10;47.82
49515;BME280;35415;47.870;16.058;2023-03-12T08:45:20;97173.66;;;4.14;47.76
49515;BME280;35415;47.870;16.058;2023-03-12T08:47:48;97180.75;;;4.32;46.66
49515;BME280;35415;47.870;16.058;2023-03-12T08:50:19;97183.09;;;4.40;45.74
49515;BME280;35415;47.870;16.058;2023-03-12T08:52:47;97186.44;;;4.47;46.08
49515;BME280;35415;47.870;16.058;2023-03-12T08:55:15;97179.16;;;4.54;46.04
49515;BME280;35415;47.870;16.058;2023-03-12T08:57:42;97181.25;;;4.64;45.83
49515;BME280;35415;47.870;16.058;2023-03-12T09:00:11;97182.97;;;4.70;45.30
49515;BME280;35415;47.870;16.058;2023-03-12T09:02:43;97179.72;;;4.79;44.88
49515;BME280;35415;47.870;16.058;2023-03-12T09:05:10;97190.50;;;4.84;44.72
49515;BME280;35415;47.870;16.058;2023-03-12T09:07:40;97121.94;;;4.45;45.07
49515;BME280;35415;47.870;16.058;2023-03-12T09:10:07;97192.34;;;4.96;44.19
49515;BME280;35415;47.870;16.058;2023-03-12T09:12:35;97190.72;;;5.06;44.36
49515;BME280;35415;47.870;16.058;2023-03-12T09:15:02;97106.06;;;4.62;45.53
49515;BME280;35415;47.870;16.058;2023-03-12T09:17:30;97172.16;;;5.11;44.11
49515;BME280;35415;47.870;16.058;2023-03-12T09:19:57;97173.63;;;5.31;43.89
49515;BME280;35415;47.870;16.058;2023-03-12T09:22:25;97124.97;;;5.12;43.89
49515;BME280;35415;47.870;16.058;2023-03-12T09:24:57;97173.47;;;5.49;42.96
49515;BME280;35415;47.870;16.058;2023-03-12T09:27:25;97189.28;;;5.67;42.65
49515;BME280;35415;47.870;16.058;2023-03-12T09:29:53;97180.19;;;5.80;41.71
49515;BME280;35415;47.870;16.058;2023-03-12T09:32:22;97175.88;;;5.91;41.49
49515;BME280;35415;47.870;16.058;2023-03-12T09:34:52;97175.81;;;6.02;40.93
49515;BME280;35415;47.870;16.058;2023-03-12T09:37:22;97124.38;;;5.79;40.21
49515;BME280;35415;47.870;16.058;2023-03-12T09:39:50;97125.16;;;5.91;40.70
49515;BME280;35415;47.870;16.058;2023-03-12T09:42:23;97128.66;;;6.08;40.49
49515;BME280;35415;47.870;16.058;2023-03-12T09:44:52;97148.50;;;6.29;39.86
49515;BME280;35415;47.870;16.058;2023-03-12T09:47:26;97167.13;;;6.57;39.36
49515;BME280;35415;47.870;16.058;2023-03-12T09:50:00;97057.75;;;6.00;40.04
49515;BME280;35415;47.870;16.058;2023-03-12T09:52:31;97113.03;;;6.33;38.57
49515;BME280;35415;47.870;16.058;2023-03-12T09:55:07;97110.47;;;6.39;39.30
49515;BME280;35415;47.870;16.058;2023-03-12T09:57:42;97107.03;;;6.60;38.56
49515;BME280;35415;47.870;16.058;2023-03-12T10:00:13;97125.38;;;6.73;38.12
49515;BME280;35415;47.870;16.058;2023-03-12T10:05:42;97101.69;;;6.82;37.84
49515;BME280;35415;47.870;16.058;2023-03-12T10:08:21;97096.59;;;6.80;37.89
49515;BME280;35415;47.870;16.058;2023-03-12T10:10:53;97116.63;;;7.00;37.27
49515;BME280;35415;47.870;16.058;2023-03-12T10:16:19;97100.28;;;7.18;37.98
49515;BME280;35415;47.870;16.058;2023-03-12T10:18:59;97112.84;;;7.39;36.97
49515;BME280;35415;47.870;16.058;2023-03-12T10:21:33;97130.09;;;7.53;36.86
49515;BME280;35415;47.870;16.058;2023-03-12T10:24:14;97065.88;;;7.27;37.04
49515;BME280;35415;47.870;16.058;2023-03-12T10:26:51;97052.28;;;7.33;36.66
49515;BME280;35415;47.870;16.058;2023-03-12T10:29:29;97064.81;;;7.54;36.55
49515;BME280;35415;47.870;16.058;2023-03-12T10:32:01;97143.59;;;8.18;36.38
49515;BME280;35415;47.870;16.058;2023-03-12T10:34:36;97122.28;;;8.01;34.43
49515;BME280;35415;47.870;16.058;2023-03-12T10:37:13;97051.00;;;7.63;34.28
49515;BME280;35415;47.870;16.058;2023-03-12T10:39:42;97145.38;;;8.34;35.29
49515;BME280;35415;47.870;16.058;2023-03-12T10:42:16;97089.38;;;8.05;35.36
49515;BME280;35415;47.870;16.058;2023-03-12T10:44:53;97091.44;;;8.25;36.78
49515;BME280;35415;47.870;16.058;2023-03-12T10:47:43;97064.22;;;8.06;35.51
49515;BME280;35415;47.870;16.058;2023-03-12T10:50:17;97110.06;;;8.42;34.64
49515;BME280;35415;47.870;16.058;2023-03-12T10:52:46;97056.34;;;8.27;33.48
49515;BME280;35415;47.870;16.058;2023-03-12T10:55:20;97087.97;;;8.67;34.98
49515;BME280;35415;47.870;16.058;2023-03-12T10:57:59;97078.88;;;8.73;34.20
49515;BME280;35415;47.870;16.058;2023-03-12T11:00:27;97043.16;;;8.57;35.37
49515;BME280;35415;47.870;16.058;2023-03-12T11:03:01;97046.22;;;8.76;35.54
49515;BME280;35415;47.870;16.058;2023-03-12T11:05:30;97017.78;;;8.75;36.07
49515;BME280;35415;47.870;16.058;2023-03-12T11:08:00;97061.94;;;9.20;37.00
49515;BME280;35415;47.870;16.058;2023-03-12T11:10:41;97083.75;;;9.44;37.55
49515;BME280;35415;47.870;16.058;2023-03-12T11:13:26;97034.06;;;9.26;37.98
49515;BME280;35415;47.870;16.058;2023-03-12T11:15:55;97036.78;;;9.41;37.18
49515;BME280;35415;47.870;16.058;2023-03-12T11:18:33;97059.09;;;9.67;37.18
49515;BME280;35415;47.870;16.058;2023-03-12T11:21:16;97040.56;;;9.71;37.42
49515;BME280;35415;47.870;16.058;2023-03-12T11:26:50;97051.34;;;9.91;37.10
49515;BME280;35415;47.870;16.058;2023-03-12T11:29:27;97044.34;;;10.00;36.97
49515;BME280;35415;47.870;16.058;2023-03-12T11:32:04;97055.09;;;10.10;36.77
49515;BME280;35415;47.870;16.058;2023-03-12T11:34:37;97052.69;;;10.14;36.65
49515;BME280;35415;47.870;16.058;2023-03-12T11:37:16;97066.69;;;10.31;36.40
49515;BME280;35415;47.870;16.058;2023-03-12T11:40:12;97070.16;;;10.37;36.34
49515;BME280;35415;47.870;16.058;2023-03-12T11:42:53;97087.63;;;10.60;36.39
49515;BME280;35415;47.870;16.058;2023-03-12T11:45:30;97026.34;;;10.21;36.13
49515;BME280;35415;47.870;16.058;2023-03-12T11:48:11;97033.84;;;10.39;36.51
49515;BME280;35415;47.870;16.058;2023-03-12T11:51:02;97027.66;;;10.39;36.41
49515;BME280;35415;47.870;16.058;2023-03-12T11:54:11;97035.72;;;10.59;37.32
49515;BME280;35415;47.870;16.058;2023-03-12T11:57:05;97052.63;;;10.70;36.06
49515;BME280;35415;47.870;16.058;2023-03-12T11:59:57;97031.66;;;10.67;36.42
49515;BME280;35415;47.870;16.058;2023-03-12T12:02:58;97044.53;;;10.75;36.36
49515;BME280;35415;47.870;16.058;2023-03-12T12:05:37;97014.47;;;10.63;36.11
49515;BME280;35415;47.870;16.058;2023-03-12T12:08:33;97029.72;;;10.82;36.48
49515;BME280;35415;47.870;16.058;2023-03-12T12:11:09;96977.94;;;10.46;35.10
49515;BME280;35415;47.870;16.058;2023-03-12T12:13:54;97027.88;;;10.78;35.27
49515;BME280;35415;47.870;16.058;2023-03-12T12:16:44;97003.41;;;10.64;35.88
49515;BME280;35415;47.870;16.058;2023-03-12T12:19:22;97045.06;;;10.82;35.54
49515;BME280;35415;47.870;16.058;2023-03-12T12:31:26;96962.31;;;10.59;35.62
49515;BME280;35415;47.870;16.058;2023-03-12T12:34:13;97008.22;;;10.77;35.32
49515;BME280;35415;47.870;16.058;2023-03-12T12:36:48;97039.88;;;11.01;34.86
49515;BME280;35415;47.870;16.058;2023-03-12T12:39:35;96963.38;;;10.52;34.92
49515;BME280;35415;47.870;16.058;2023-03-12T12:42:12;97006.88;;;10.75;35.46
49515;BME280;35415;47.870;16.058;2023-03-12T12:44:46;96975.47;;;10.55;34.59
49515;BME280;35415;47.870;16.058;2023-03-12T12:47:34;97049.81;;;11.05;35.34
49515;BME280;35415;47.870;16.058;2023-03-12T12:50:12;96984.34;;;10.55;34.89
49515;BME280;35415;47.870;16.058;2023-03-12T12:52:42;97050.38;;;10.97;34.36
49515;BME280;35415;47.870;16.058;2023-03-12T12:55:19;97034.53;;;10.85;34.93
49515;BME280;35415;47.870;16.058;2023-03-12T12:57:53;97001.56;;;10.60;35.23
49515;BME280;35415;47.870;16.058;2023-03-12T13:00:40;97039.69;;;10.82;34.67
49515;BME280;35415;47.870;16.058;2023-03-12T13:03:20;96989.44;;;10.57;35.17
49515;BME280;35415;47.870;16.058;2023-03-12T13:05:56;96996.19;;;10.54;34.61
49515;BME280;35415;47.870;16.058;2023-03-12T13:11:27;97019.31;;;10.61;35.22
49515;BME280;35415;47.870;16.058;2023-03-12T13:14:33;96993.53;;;10.39;35.25
49515;BME280;35415;47.870;16.058;2023-03-12T13:17:31;96986.03;;;10.31;35.45
49515;BME280;35415;47.870;16.058;2023-03-12T13:20:15;97007.75;;;10.50;35.71
49515;BME280;35415;47.870;16.058;2023-03-12T13:23:16;97013.41;;;10.53;35.07
49515;BME280;35415;47.870;16.058;2023-03-12T13:26:02;97020.13;;;10.51;35.27
49515;BME280;35415;47.870;16.058;2023-03-12T13:28:37;97012.09;;;10.36;35.00
49515;BME280;35415;47.870;16.058;2023-03-12T13:31:37;97010.22;;;10.41;35.09
49515;BME280;35415;47.870;16.058;2023-03-12T13:34:31;97035.97;;;10.58;35.11
49515;BME280;35415;47.870;16.058;2023-03-12T13:40:35;97067.41;;;10.72;35.63
49515;BME280;35415;47.870;16.058;2023-03-12T13:43:10;97069.59;;;10.55;34.36
49515;BME280;35415;47.870;16.058;2023-03-12T13:45:41;96994.63;;;10.13;34.55
49515;BME280;35415;47.870;16.058;2023-03-12T13:48:21;97020.19;;;10.26;35.02